Time;durP1;ratioP1;P1;durP2;ratioP2;P2;SDS_P1;SDS_P2;PMS_P1;PMS_P2;Temp;Humidity;BMP_temperature;BMP_pressure;BME280_temperature;BME280_humidity;BME280_pressure;Samples;Min_cycle;Max_cycle;Signal;HPM_P1;HPM_P2
2022/02/19 00:00:26;;;;;;;0.40;0.40;;;5.80;99.90;;;;;;5015115;28;20186;-73
2022/02/19 00:02:53;;;;;;;0.30;0.30;;;5.30;99.90;;;;;;5014910;28;20191;-74
2022/02/19 00:05:19;;;;;;;0.40;0.40;;;5.40;99.90;;;;;;5014968;28;20176;-74
2022/02/19 00:07:44;;;;;;;0.30;0.30;;;5.70;99.90;;;;;;5014900;28;20207;-73
2022/02/19 00:10:11;;;;;;;0.40;0.40;;;5.50;99.90;;;;;;5014819;28;20226;-73
2022/02/19 00:12:37;;;;;;;0.40;0.40;;;5.80;99.90;;;;;;5014839;28;20211;-72
2022/02/19 00:15:04;;;;;;;0.40;0.40;;;5.50;99.90;;;;;;5015064;28;20215;-73
2022/02/19 00:17:30;;;;;;;0.40;0.40;;;5.30;99.90;;;;;;5014745;28;20402;-72
2022/02/19 00:19:56;;;;;;;0.40;0.40;;;5.20;99.90;;;;;;5014690;28;20179;-74
2022/02/19 00:22:22;;;;;;;0.40;0.40;;;5.70;99.90;;;;;;5014785;28;20199;-74
2022/02/19 00:24:48;;;;;;;0.40;0.40;;;5.30;99.90;;;;;;5014503;28;20177;-73
2022/02/19 00:27:14;;;;;;;0.40;0.40;;;5.20;99.90;;;;;;5014385;28;20465;-74
2022/02/19 00:29:40;;;;;;;0.40;0.40;;;5.50;99.90;;;;;;5014495;28;20181;-75
2022/02/19 00:32:07;;;;;;;0.30;0.30;;;5.20;99.90;;;;;;5014589;28;20188;-74
2022/02/19 00:34:33;;;;;;;0.40;0.40;;;5.30;99.90;;;;;;5014347;28;20565;-74
2022/02/19 00:36:59;;;;;;;0.40;0.40;;;5.40;99.90;;;;;;5014284;28;20266;-74
2022/02/19 00:39:25;;;;;;;0.40;0.40;;;5.70;99.90;;;;;;5014528;28;20403;-75
2022/02/19 00:41:51;;;;;;;0.40;0.40;;;5.40;99.90;;;;;;5014379;28;20598;-73
2022/02/19 00:44:17;;;;;;;0.40;0.40;;;5.60;99.90;;;;;;5014272;28;20448;-73
2022/02/19 00:46:42;;;;;;;0.40;0.40;;;5.70;99.90;;;;;;5014056;28;20199;-75
2022/02/19 00:49:08;;;;;;;0.40;0.40;;;;;;;;;;5014159;28;20174;-74
2022/02/19 00:51:34;;;;;;;0.30;0.30;;;5.20;99.90;;;;;;5013425;28;20529;-73
2022/02/19 00:54:00;;;;;;;0.30;0.30;;;5.70;99.90;;;;;;5014104;28;20183;-74
2022/02/19 00:56:26;;;;;;;0.40;0.40;;;5.50;99.90;;;;;;5013927;28;20495;-73
2022/02/19 00:58:52;;;;;;;0.40;0.40;;;5.20;99.90;;;;;;5014025;28;20207;-74
2022/02/19 01:01:18;;;;;;;0.30;0.30;;;5.20;99.90;;;;;;5014035;28;20173;-74
2022/02/19 01:03:45;;;;;;;0.30;0.30;;;5.50;99.90;;;;;;5013985;28;20229;-74
2022/02/19 01:06:10;;;;;;;0.35;0.35;;;6.00;99.90;;;;;;5013854;28;20226;-73
2022/02/19 01:08:36;;;;;;;0.30;0.30;;;5.20;99.90;;;;;;5014004;28;20219;-74
2022/02/19 01:11:02;;;;;;;0.30;0.30;;;5.10;99.90;;;;;;5014010;28;20509;-74
2022/02/19 01:13:28;;;;;;;0.30;0.30;;;5.20;99.90;;;;;;5013755;28;20606;-73
2022/02/19 01:15:54;;;;;;;0.40;0.40;;;5.40;99.90;;;;;;5013699;28;20180;-74
2022/02/19 01:18:20;;;;;;;0.40;0.40;;;5.70;99.90;;;;;;5013896;28;20172;-74
2022/02/19 01:20:46;;;;;;;0.40;0.40;;;5.50;99.90;;;;;;5013781;28;20179;-73
2022/02/19 01:23:13;;;;;;;0.40;0.40;;;5.70;99.90;;;;;;5013823;28;20565;-73
2022/02/19 01:25:39;;;;;;;0.30;0.30;;;5.60;99.90;;;;;;5013468;28;20179;-73
2022/02/19 01:28:05;;;;;;;0.30;0.30;;;6.30;99.90;;;;;;5013646;28;20199;-74
2022/02/19 01:30:31;;;;;;;0.38;0.38;;;6.00;99.90;;;;;;5013676;28;20407;-74
2022/02/19 01:32:57;;;;;;;0.40;0.40;;;6.00;99.90;;;;;;5013600;28;20297;-74
2022/02/19 01:35:23;;;;;;;0.40;0.40;;;5.50;99.10;;;;;;5013443;28;20538;-73
2022/02/19 01:37:49;;;;;;;0.40;0.40;;;6.10;99.50;;;;;;5013785;28;20182;-73
2022/02/19 01:40:14;;;;;;;0.40;0.40;;;5.60;99.60;;;;;;5013693;28;20438;-74
2022/02/19 01:42:40;;;;;;;0.40;0.40;;;5.60;99.90;;;;;;5013548;28;20192;-74
2022/02/19 01:45:09;;;;;;;0.30;0.30;;;5.50;98.90;;;;;;5013568;28;20191;-73
2022/02/19 01:47:36;;;;;;;0.40;0.40;;;5.30;98.80;;;;;;5013534;28;20226;-73
2022/02/19 01:50:03;;;;;;;0.40;0.40;;;5.20;99.60;;;;;;5013640;28;20179;-73
2022/02/19 01:52:29;;;;;;;0.40;0.40;;;5.20;99.80;;;;;;5013405;28;20218;-74
2022/02/19 01:54:55;;;;;;;0.38;0.38;;;5.40;99.90;;;;;;5013454;28;20176;-74
2022/02/19 01:57:22;;;;;;;0.40;0.40;;;5.40;99.90;;;;;;5013281;28;20180;-73
2022/02/19 01:59:48;;;;;;;0.40;0.40;;;5.70;99.90;;;;;;5013448;28;20541;-74
2022/02/19 02:02:14;;;;;;;0.30;0.30;;;5.10;99.70;;;;;;5014431;28;20278;-74
2022/02/19 02:04:41;;;;;;;0.40;0.40;;;5.00;99.30;;;;;;5017300;28;20266;-72
2022/02/19 02:07:09;;;;;;;0.30;0.30;;;5.10;99.20;;;;;;5016859;28;20652;-74
2022/02/19 02:09:38;;;;;;;0.40;0.40;;;5.10;99.30;;;;;;5017511;28;20178;-73
2022/02/19 02:12:06;;;;;;;0.30;0.30;;;5.20;99.50;;;;;;5015771;28;20192;-73
2022/02/19 02:14:40;;;;;;;0.30;0.30;;;5.20;98.90;;;;;;5017174;28;20176;-73
2022/02/19 02:17:07;;;;;;;0.40;0.40;;;5.00;98.30;;;;;;5017057;28;20174;-73
2022/02/19 02:19:37;;;;;;;0.40;0.40;;;5.10;99.10;;;;;;5017105;28;20198;-73
2022/02/19 02:22:05;;;;;;;0.40;0.40;;;5.20;99.90;;;;;;5016771;28;20195;-74
2022/02/19 02:24:34;;;;;;;0.30;0.30;;;5.00;99.70;;;;;;5017282;28;20267;-74
2022/02/19 02:27:02;;;;;;;0.35;0.35;;;5.10;99.30;;;;;;5016645;28;20194;-73
2022/02/19 02:29:27;;;;;;;0.40;0.40;;;5.00;98.90;;;;;;5017047;28;20520;-74
2022/02/19 02:31:53;;;;;;;0.30;0.30;;;5.20;99.00;;;;;;5016783;28;20192;-72
2022/02/19 02:34:22;;;;;;;0.40;0.40;;;5.40;98.70;;;;;;5016645;28;20672;-73
2022/02/19 02:36:47;;;;;;;0.40;0.40;;;5.10;98.80;;;;;;5016605;28;20176;-74
2022/02/19 02:39:13;;;;;;;0.40;0.40;;;;;;;;;;5016677;28;20672;-74
2022/02/19 02:41:39;;;;;;;0.30;0.30;;;5.10;98.30;;;;;;5015279;28;20228;-74
2022/02/19 02:44:05;;;;;;;0.40;0.40;;;5.20;99.50;;;;;;5016660;28;20179;-74
2022/02/19 02:46:31;;;;;;;0.37;0.37;;;5.10;99.30;;;;;;5016235;28;20417;-74
2022/02/19 02:48:56;;;;;;;0.30;0.30;;;4.90;98.80;;;;;;5016539;28;20251;-75
2022/02/19 02:51:22;;;;;;;0.40;0.40;;;5.00;99.90;;;;;;5016273;28;20214;-74
2022/02/19 02:53:48;;;;;;;0.30;0.30;;;5.10;98.80;;;;;;5016245;28;20559;-72
2022/02/19 02:56:14;;;;;;;0.40;0.40;;;5.10;99.30;;;;;;5016201;28;20171;-74
2022/02/19 02:58:39;;;;;;;0.30;0.30;;;5.00;99.00;;;;;;5016411;28;20411;-74
2022/02/19 03:01:05;;;;;;;0.40;0.40;;;5.20;99.20;;;;;;5016366;28;20205;-74
2022/02/19 03:03:31;;;;;;;0.40;0.40;;;5.10;98.60;;;;;;5016280;28;20291;-74
2022/02/19 03:05:57;;;;;;;0.30;0.30;;;5.10;98.70;;;;;;5016025;28;20215;-73
2022/02/19 03:08:23;;;;;;;0.40;0.40;;;4.90;98.50;;;;;;5016172;28;20450;-73
2022/02/19 03:10:49;;;;;;;0.30;0.30;;;5.50;98.80;;;;;;5016183;28;20246;-73
2022/02/19 03:13:14;;;;;;;0.40;0.40;;;5.00;98.70;;;;;;5015363;28;20237;-73
2022/02/19 03:15:40;;;;;;;0.30;0.30;;;5.30;98.30;;;;;;5015300;28;20395;-74
2022/02/19 03:18:06;;;;;;;0.40;0.40;;;5.10;99.00;;;;;;5016001;28;20175;-75
2022/02/19 03:20:33;;;;;;;0.30;0.30;;;5.20;98.80;;;;;;5015778;28;20175;-74
2022/02/19 03:22:59;;;;;;;0.30;0.30;;;5.00;98.90;;;;;;5015659;28;20217;-73
2022/02/19 03:25:25;;;;;;;0.38;0.38;;;4.70;98.20;;;;;;5015656;28;20199;-74
2022/02/19 03:27:51;;;;;;;0.40;0.40;;;4.70;98.30;;;;;;5015712;28;20689;-74
2022/02/19 03:30:17;;;;;;;0.40;0.40;;;;;;;;;;5015794;28;20172;-73
2022/02/19 03:32:43;;;;;;;0.40;0.40;;;5.00;97.80;;;;;;5015641;28;20191;-73
2022/02/19 03:35:09;;;;;;;0.40;0.40;;;5.00;98.50;;;;;;5015627;28;20168;-73
2022/02/19 03:37:36;;;;;;;0.30;0.30;;;4.90;98.00;;;;;;5015514;28;20218;-75
2022/02/19 03:40:06;;;;;;;0.30;0.30;;;5.30;97.60;;;;;;5015686;28;20784;-73
2022/02/19 03:42:42;;;;;;;0.40;0.40;;;5.00;98.00;;;;;;5015516;28;20196;-72
2022/02/19 03:45:13;;;;;;;0.30;0.30;;;4.90;98.20;;;;;;5015172;28;20598;-74
2022/02/19 03:47:41;;;;;;;0.30;0.30;;;5.00;98.20;;;;;;5015249;28;20200;-74
2022/02/19 03:50:08;;;;;;;0.40;0.40;;;5.00;97.90;;;;;;5015297;28;20250;-74
2022/02/19 03:52:35;;;;;;;0.40;0.40;;;5.00;97.60;;;;;;5014918;28;20207;-72
2022/02/19 03:55:01;;;;;;;0.40;0.40;;;5.30;96.60;;;;;;5015318;28;20689;-73
2022/02/19 03:57:27;;;;;;;0.40;0.40;;;4.90;96.40;;;;;;5015185;28;20263;-75
2022/02/19 03:59:53;;;;;;;0.40;0.40;;;5.40;96.30;;;;;;5015255;28;20742;-73
2022/02/19 04:02:18;;;;;;;0.40;0.40;;;4.90;96.80;;;;;;5014970;28;20198;-73
2022/02/19 04:04:44;;;;;;;0.40;0.40;;;5.10;97.30;;;;;;5015053;28;20171;-73
2022/02/19 04:07:10;;;;;;;0.30;0.30;;;;;;;;;;5014808;28;20299;-73
2022/02/19 04:09:36;;;;;;;0.40;0.40;;;4.80;96.00;;;;;;5015031;28;20532;-74
2022/02/19 04:12:02;;;;;;;0.40;0.40;;;4.70;97.30;;;;;;5014855;28;20329;-74
2022/02/19 04:14:28;;;;;;;0.40;0.40;;;4.70;97.10;;;;;;5015505;28;20653;-74
2022/02/19 04:16:54;;;;;;;0.40;0.40;;;4.60;97.60;;;;;;5014679;28;20180;-73
2022/02/19 04:19:19;;;;;;;0.40;0.40;;;5.20;97.80;;;;;;5014824;28;20737;-74
2022/02/19 04:21:45;;;;;;;0.30;0.30;;;5.20;98.00;;;;;;5014819;28;20534;-73
2022/02/19 04:24:11;;;;;;;0.40;0.40;;;4.80;98.30;;;;;;5014781;28;20180;-74
2022/02/19 04:26:36;;;;;;;3.90;2.10;;;5.10;97.50;;;;;;5014278;28;20179;-74
2022/02/19 04:29:02;;;;;;;0.40;0.40;;;4.90;97.40;;;;;;5014719;28;20179;-73
2022/02/19 04:31:28;;;;;;;0.40;0.40;;;4.80;99.90;;;;;;5014398;28;20246;-74
2022/02/19 04:33:54;;;;;;;0.37;0.37;;;4.70;98.00;;;;;;5014448;28;20267;-73
2022/02/19 04:36:19;;;;;;;0.40;0.40;;;5.50;98.70;;;;;;5014222;28;20167;-73
2022/02/19 04:38:45;;;;;;;0.40;0.40;;;5.30;97.70;;;;;;5014279;28;20242;-73
2022/02/19 04:41:11;;;;;;;0.40;0.40;;;4.50;98.20;;;;;;5014547;28;20254;-74
2022/02/19 04:43:36;;;;;;;0.40;0.40;;;4.60;97.90;;;;;;5014122;28;20242;-74
2022/02/19 04:46:02;;;;;;;0.40;0.40;;;4.70;96.90;;;;;;5014154;28;20191;-73
2022/02/19 04:48:28;;;;;;;0.40;0.40;;;4.50;95.90;;;;;;5014201;28;20199;-74
2022/02/19 04:50:53;;;;;;;0.40;0.40;;;4.30;97.20;;;;;;5014215;28;20536;-73
2022/02/19 04:53:19;;;;;;;0.30;0.30;;;4.30;96.80;;;;;;5013985;28;20199;-74
2022/02/19 04:55:44;;;;;;;0.40;0.40;;;4.10;96.90;;;;;;5013943;28;20594;-73
2022/02/19 04:58:11;;;;;;;0.40;0.40;;;;;;;;;;5014235;28;20255;-73
2022/02/19 05:00:36;;;;;;;0.40;0.40;;;4.40;98.00;;;;;;5012787;28;20633;-73
2022/02/19 05:03:02;;;;;;;0.40;0.40;;;4.20;98.70;;;;;;5013995;28;20206;-74
2022/02/19 05:05:28;;;;;;;0.30;0.30;;;4.50;99.10;;;;;;5013983;28;20407;-73
2022/02/19 05:07:54;;;;;;;0.30;0.30;;;4.50;98.50;;;;;;5013977;28;20469;-73
2022/02/19 05:10:19;;;;;;;0.40;0.40;;;4.80;98.90;;;;;;5014105;28;20537;-73
2022/02/19 05:12:45;;;;;;;0.30;0.30;;;4.30;99.00;;;;;;5012642;28;20192;-74
2022/02/19 05:15:15;;;;;;;0.40;0.40;;;4.40;99.00;;;;;;5014218;28;20164;-73
2022/02/19 05:17:51;;;;;;;0.40;0.40;;;4.70;98.60;;;;;;5014202;28;20198;-73
2022/02/19 05:20:21;;;;;;;2.65;2.55;;;4.50;98.70;;;;;;5012744;28;20189;-74
2022/02/19 05:22:48;;;;;;;0.32;0.32;;;4.90;99.20;;;;;;5013805;28;20203;-71
2022/02/19 05:25:13;;;;;;;0.40;0.40;;;4.60;99.00;;;;;;5013530;28;20175;-74
2022/02/19 05:27:39;;;;;;;0.40;0.40;;;4.50;98.30;;;;;;5013692;28;20257;-74
2022/02/19 05:30:05;;;;;;;0.40;0.40;;;4.70;98.70;;;;;;5013702;28;20577;-74
2022/02/19 05:32:31;;;;;;;0.40;0.40;;;4.40;98.20;;;;;;5013870;28;20241;-72
2022/02/19 05:34:57;;;;;;;0.40;0.40;;;4.30;97.60;;;;;;5014075;28;20179;-77
2022/02/19 05:37:22;;;;;;;0.40;0.40;;;4.20;98.20;;;;;;5015147;28;20209;-76
2022/02/19 05:39:48;;;;;;;0.30;0.30;;;3.90;96.50;;;;;;5017893;28;20175;-75
2022/02/19 05:42:14;;;;;;;0.30;0.30;;;3.90;97.30;;;;;;5017152;28;20562;-72
2022/02/19 05:44:40;;;;;;;0.30;0.30;;;3.90;98.60;;;;;;5017625;28;20184;-73
2022/02/19 05:47:06;;;;;;;0.32;0.32;;;3.70;97.50;;;;;;5016191;28;20558;-71
2022/02/19 05:49:33;;;;;;;0.30;0.30;;;3.80;97.90;;;;;;5016434;28;20171;-72
2022/02/19 05:51:59;;;;;;;0.60;0.40;;;3.90;99.90;;;;;;5016535;28;20210;-73
2022/02/19 05:54:25;;;;;;;0.30;0.30;;;3.90;97.70;;;;;;5016126;28;20178;-72
2022/02/19 05:56:50;;;;;;;0.40;0.40;;;4.00;97.90;;;;;;5016833;28;20175;-73
2022/02/19 05:59:16;;;;;;;0.40;0.40;;;4.10;98.10;;;;;;5017400;28;20182;-73
2022/02/19 06:01:41;;;;;;;0.40;0.40;;;4.00;97.70;;;;;;5017310;28;20683;-73
2022/02/19 06:04:07;;;;;;;0.40;0.40;;;4.10;97.70;;;;;;5017265;28;20179;-73
2022/02/19 06:06:33;;;;;;;0.40;0.40;;;4.20;97.70;;;;;;5016981;28;20171;-73
2022/02/19 06:08:58;;;;;;;0.40;0.40;;;4.40;97.60;;;;;;5017358;28;20178;-73
2022/02/19 06:11:24;;;;;;;0.40;0.40;;;4.50;97.50;;;;;;5016512;28;20217;-75
2022/02/19 06:13:49;;;;;;;0.40;0.40;;;4.70;97.00;;;;;;5017080;28;20167;-74
2022/02/19 06:16:15;;;;;;;0.40;0.40;;;4.80;97.40;;;;;;5016980;28;20171;-74
2022/02/19 06:18:41;;;;;;;0.40;0.40;;;4.70;97.30;;;;;;5017151;28;20545;-77
2022/02/19 06:21:07;;;;;;;0.40;0.40;;;4.70;96.80;;;;;;5016859;28;20171;-70
2022/02/19 06:23:33;;;;;;;0.33;0.33;;;4.70;96.00;;;;;;5016805;28;20454;-76
2022/02/19 06:25:58;;;;;;;0.40;0.40;;;4.50;95.70;;;;;;5016935;28;20533;-73
2022/02/19 06:28:24;;;;;;;0.40;0.40;;;4.20;95.90;;;;;;5016690;28;20238;-73
2022/02/19 06:30:50;;;;;;;0.40;0.40;;;4.50;96.60;;;;;;5016859;28;20172;-74
2022/02/19 06:33:15;;;;;;;0.37;0.37;;;4.50;95.70;;;;;;5016066;28;20753;-74
2022/02/19 06:35:41;;;;;;;0.40;0.40;;;4.40;95.80;;;;;;5016503;28;20537;-74
2022/02/19 06:38:07;;;;;;;0.40;0.40;;;4.50;96.50;;;;;;5016596;28;20540;-73
2022/02/19 06:40:32;;;;;;;0.40;0.40;;;4.50;96.10;;;;;;5016602;28;20176;-74
2022/02/19 06:42:58;;;;;;;0.40;0.40;;;4.50;96.20;;;;;;5016523;28;20199;-74
2022/02/19 06:45:24;;;;;;;0.40;0.40;;;4.60;97.30;;;;;;5016580;28;20649;-74
2022/02/19 06:47:50;;;;;;;0.40;0.40;;;4.60;97.50;;;;;;5016320;28;20334;-74
2022/02/19 06:50:15;;;;;;;0.40;0.40;;;4.70;96.30;;;;;;5014974;28;20422;-77
2022/02/19 06:52:41;;;;;;;0.30;0.30;;;4.30;95.70;;;;;;5016468;28;20290;-73
2022/02/19 06:55:07;;;;;;;0.40;0.40;;;4.60;96.00;;;;;;5016180;28;20198;-75
2022/02/19 06:57:33;;;;;;;0.40;0.40;;;4.70;95.60;;;;;;5016411;28;20278;-75
2022/02/19 06:59:59;;;;;;;0.35;0.35;;;5.00;95.90;;;;;;5015272;28;20696;-75
2022/02/19 07:02:24;;;;;;;0.40;0.40;;;5.20;95.90;;;;;;5015833;28;20192;-76
2022/02/19 07:04:50;;;;;;;0.40;0.40;;;5.30;94.90;;;;;;5014621;28;20262;-73
2022/02/19 07:07:16;;;;;;;0.30;0.30;;;5.10;95.80;;;;;;5014987;28;20237;-73
2022/02/19 07:09:42;;;;;;;0.37;0.37;;;5.20;94.60;;;;;;5015009;28;20569;-73
2022/02/19 07:12:08;;;;;;;0.40;0.40;;;5.40;94.70;;;;;;5015728;28;20782;-73
2022/02/19 07:14:34;;;;;;;0.30;0.30;;;5.70;94.20;;;;;;5016255;28;20314;-73
2022/02/19 07:17:04;;;;;;;0.40;0.40;;;5.70;93.40;;;;;;5015967;28;20654;-73
2022/02/19 07:19:34;;;;;;;0.30;0.30;;;5.70;93.00;;;;;;5015991;28;20425;-73
2022/02/19 07:22:00;;;;;;;0.38;0.38;;;5.60;92.90;;;;;;5015683;28;20196;-73
2022/02/19 07:24:25;;;;;;;0.40;0.40;;;5.60;92.80;;;;;;5015372;28;20206;-71
2022/02/19 07:26:51;;;;;;;0.40;0.40;;;5.20;93.10;;;;;;5015285;28;20207;-71
2022/02/19 07:29:18;;;;;;;0.30;0.30;;;5.20;94.10;;;;;;5013840;28;20196;-71
2022/02/19 07:31:43;;;;;;;0.40;0.40;;;5.30;94.00;;;;;;5015550;28;20183;-72
2022/02/19 07:34:09;;;;;;;0.30;0.30;;;5.60;93.70;;;;;;5015569;28;20176;-70
2022/02/19 07:36:34;;;;;;;0.40;0.40;;;5.90;93.20;;;;;;5015327;28;20171;-71
2022/02/19 07:39:00;;;;;;;0.40;0.40;;;6.00;93.00;;;;;;5015638;28;20294;-72
2022/02/19 07:41:26;;;;;;;0.30;0.30;;;6.20;93.10;;;;;;5015360;28;20626;-73
2022/02/19 07:43:51;;;;;;;1.70;1.60;;;6.00;92.50;;;;;;5015533;28;20183;-73
2022/02/19 07:46:17;;;;;;;0.40;0.40;;;5.70;92.60;;;;;;5015324;28;20175;-72
2022/02/19 07:48:43;;;;;;;0.40;0.40;;;5.80;92.90;;;;;;5015259;28;20653;-72
2022/02/19 07:59:21;;;;;;;0.40;0.40;;;6.20;91.90;;;;;;5015113;28;20179;-73
2022/02/19 08:01:47;;;;;;;0.40;0.40;;;6.10;92.20;;;;;;5014823;28;20195;-74
2022/02/19 08:04:14;;;;;;;0.40;0.40;;;6.20;92.70;;;;;;5015169;28;20175;-73
2022/02/19 08:06:40;;;;;;;0.40;0.40;;;6.60;92.80;;;;;;5014733;28;20164;-73
2022/02/19 08:09:05;;;;;;;0.40;0.40;;;7.00;92.00;;;;;;5014911;28;20177;-73
2022/02/19 08:11:33;;;;;;;0.40;0.40;;;7.10;91.40;;;;;;5014458;28;20506;-78
2022/02/19 08:13:59;;;;;;;0.30;0.30;;;7.50;99.90;;;;;;5015041;28;20673;-79
2022/02/19 08:16:24;;;;;;;0.40;0.40;;;7.30;92.60;;;;;;5014648;28;20180;-76
2022/02/19 08:18:52;;;;;;;0.40;0.40;;;;;;;;;;5015033;28;20181;-78
2022/02/19 08:21:20;;;;;;;0.40;0.40;;;6.60;91.20;;;;;;5014125;28;20403;-72
2022/02/19 08:23:46;;;;;;;0.40;0.40;;;6.60;91.70;;;;;;5012353;28;20226;-72
2022/02/19 08:26:13;;;;;;;0.40;0.40;;;6.90;91.60;;;;;;5013959;28;20254;-74
2022/02/19 08:28:38;;;;;;;0.40;0.40;;;7.20;91.30;;;;;;5013359;28;20237;-73
2022/02/19 08:31:04;;;;;;;0.33;0.33;;;7.70;90.80;;;;;;5014775;28;20226;-79
2022/02/19 08:33:30;;;;;;;0.40;0.40;;;8.20;89.60;;;;;;5014451;28;20187;-72
2022/02/19 08:35:56;;;;;;;0.30;0.30;;;8.40;87.60;;;;;;5014305;28;20528;-73
2022/02/19 08:38:22;;;;;;;0.40;0.40;;;8.20;86.60;;;;;;5014017;28;20453;-71
2022/02/19 08:40:47;;;;;;;0.30;0.30;;;8.10;87.50;;;;;;5014536;28;20173;-72
2022/02/19 08:43:14;;;;;;;0.40;0.40;;;7.90;88.70;;;;;;5014390;28;20435;-72
2022/02/19 08:45:40;;;;;;;0.40;0.40;;;7.70;88.80;;;;;;5012734;28;20582;-72
2022/02/19 08:48:08;;;;;;;0.30;0.30;;;7.60;89.50;;;;;;5014269;28;20215;-72
2022/02/19 08:50:36;;;;;;;0.40;0.40;;;7.70;90.00;;;;;;4997031;28;20179;-81
2022/02/19 08:53:03;;;;;;;0.40;0.40;;;9.30;84.90;;;;;;5012255;28;20266;-75
2022/02/19 08:55:31;;;;;;;0.40;0.40;;;10.60;79.80;;;;;;5013212;28;20633;-77
2022/02/19 08:57:59;;;;;;;0.30;0.30;;;12.20;72.20;;;;;;5014101;28;20179;-74
2022/02/19 09:00:25;;;;;;;0.30;0.30;;;13.70;65.50;;;;;;5011694;28;20262;-76
2022/02/19 09:02:50;;;;;;;0.30;0.30;;;14.70;58.90;;;;;;5012082;28;20693;-75
2022/02/19 09:05:17;;;;;;;0.33;0.33;;;15.10;56.20;;;;;;5012333;28;20410;-75
2022/02/19 09:07:43;;;;;;;0.30;0.30;;;16.10;54.50;;;;;;5013209;28;20195;-73
2022/02/19 09:10:11;;;;;;;0.40;0.40;;;17.10;51.90;;;;;;5013567;28;20403;-76
2022/02/19 09:12:40;;;;;;;5.30;0.90;;;18.10;48.60;;;;;;5012326;28;20426;-75
2022/02/19 09:15:07;;;;;;;0.40;0.40;;;18.90;46.30;;;;;;5012800;28;20980;-72
2022/02/19 09:17:33;;;;;;;0.40;0.40;;;19.40;43.40;;;;;;5012993;28;20415;-73
2022/02/19 09:20:00;;;;;;;0.30;0.30;;;19.20;43.70;;;;;;5014177;28;20787;-72
2022/02/19 09:22:26;;;;;;;0.30;0.30;;;19.50;43.10;;;;;;5014015;28;20422;-72
2022/02/19 09:24:51;;;;;;;0.30;0.30;;;19.60;41.10;;;;;;5014548;28;20908;-72
2022/02/19 09:27:17;;;;;;;0.30;0.30;;;19.90;41.90;;;;;;5013601;28;20207;-71
2022/02/19 09:29:43;;;;;;;0.30;0.30;;;19.20;40.30;;;;;;5013703;28;20174;-73
2022/02/19 09:32:09;;;;;;;0.30;0.30;;;17.10;41.80;;;;;;5013498;28;20191;-70
2022/02/19 09:34:34;;;;;;;0.30;0.30;;;15.60;45.70;;;;;;5013974;28;20653;-73
2022/02/19 09:37:00;;;;;;;0.30;0.30;;;15.40;46.70;;;;;;5013658;28;20406;-70
2022/02/19 09:39:26;;;;;;;0.30;0.30;;;16.00;46.90;;;;;;5013819;28;20175;-71
2022/02/19 09:41:52;;;;;;;0.30;0.30;;;16.80;45.10;;;;;;5012850;28;20248;-76
2022/02/19 09:44:18;;;;;;;0.30;0.30;;;16.10;44.30;;;;;;5013902;28;20170;-74
2022/02/19 09:46:50;;;;;;;0.30;0.30;;;15.60;46.40;;;;;;5012862;28;20410;-72
2022/02/19 09:49:18;;;;;;;0.30;0.30;;;16.50;46.80;;;;;;5011925;28;20414;-73
2022/02/19 09:51:44;;;;;;;0.30;0.30;;;17.10;43.40;;;;;;5012228;28;20426;-76
2022/02/19 09:54:10;;;;;;;0.30;0.30;;;16.80;43.60;;;;;;5012409;28;20406;-73
2022/02/19 09:56:35;;;;;;;0.40;0.40;;;17.70;43.60;;;;;;5012242;28;20172;-70
2022/02/19 09:59:01;;;;;;;0.40;0.40;;;18.70;41.20;;;;;;5013490;28;20624;-70
2022/02/19 10:01:27;;;;;;;0.30;0.30;;;19.20;40.10;;;;;;5013211;28;20180;-73
2022/02/19 10:04:01;;;;;;;0.30;0.30;;;18.20;38.70;;;;;;5012362;28;20175;-72
2022/02/19 10:06:33;;;;;;;0.40;0.40;;;17.90;40.80;;;;;;5012124;28;20422;-72
2022/02/19 10:09:19;;;;;;;0.40;0.40;;;17.30;41.60;;;;;;5013324;28;20460;-71
2022/02/19 10:11:46;;;;;;;0.30;0.30;;;17.20;42.10;;;;;;5012440;28;20430;-70
2022/02/19 10:14:30;;;;;;;0.30;0.30;;;18.20;42.50;;;;;;5013847;28;20398;-73
2022/02/19 10:17:03;;;;;;;0.30;0.30;;;18.70;40.70;;;;;;5013256;28;20409;-67
2022/02/19 10:19:29;;;;;;;0.40;0.40;;;18.00;40.40;;;;;;5013476;28;20445;-70
2022/02/19 10:22:09;;;;;;;0.30;0.30;;;16.50;42.50;;;;;;5013251;28;20418;-69
2022/02/19 10:24:38;;;;;;;0.40;0.40;;;15.50;44.80;;;;;;5016829;28;20740;-73
2022/02/19 10:27:04;;;;;;;0.30;0.30;;;14.50;45.50;;;;;;5014588;28;21026;-71
2022/02/19 10:29:32;;;;;;;0.30;0.30;;;13.80;47.00;;;;;;5014884;28;20769;-74
2022/02/19 10:31:58;;;;;;;0.30;0.30;;;13.20;49.10;;;;;;5015192;28;20458;-70
2022/02/19 10:34:24;;;;;;;0.30;0.30;;;12.00;48.70;;;;;;5016908;28;20172;-69
2022/02/19 10:36:54;;;;;;;0.40;0.40;;;11.10;50.30;;;;;;5016956;28;20238;-68
2022/02/19 10:39:32;;;;;;;0.30;0.30;;;10.30;50.80;;;;;;5017244;28;20210;-73
2022/02/19 10:42:04;;;;;;;0.30;0.30;;;9.80;53.30;;;;;;5015742;28;20183;-68
2022/02/19 10:44:33;;;;;;;0.40;0.40;;;9.40;54.20;;;;;;5015712;28;20641;-67
2022/02/19 10:47:23;;;;;;;0.40;0.40;;;9.00;55.70;;;;;;5016559;28;20538;-68
2022/02/19 10:50:05;;;;;;;0.40;0.40;;;9.30;55.70;;;;;;5017100;28;20171;-68
2022/02/19 10:52:31;;;;;;;0.35;0.35;;;9.60;55.30;;;;;;5015692;28;20207;-68
2022/02/19 10:55:09;;;;;;;0.30;0.30;;;10.40;53.10;;;;;;5016524;28;20187;-68
2022/02/19 10:57:44;;;;;;;0.30;0.30;;;11.40;49.90;;;;;;5016011;28;20225;-68
2022/02/19 11:00:19;;;;;;;0.32;0.32;;;11.60;50.40;;;;;;5015310;28;20186;-68
2022/02/19 11:02:46;;;;;;;0.30;0.30;;;11.20;50.30;;;;;;5016479;28;20193;-68
2022/02/19 11:05:13;;;;;;;0.30;0.30;;;10.90;49.20;;;;;;5015166;28;20305;-68
2022/02/19 11:07:41;;;;;;;0.30;0.30;;;10.50;51.00;;;;;;5015887;28;20195;-67
2022/02/19 11:10:09;;;;;;;0.40;0.40;;;10.30;51.90;;;;;;5015430;28;20186;-68
2022/02/19 11:12:35;;;;;;;0.30;0.30;;;10.10;52.20;;;;;;5016478;28;20191;-69
2022/02/19 11:15:04;;;;;;;0.40;0.40;;;10.00;51.60;;;;;;5016181;28;20180;-69
2022/02/19 11:17:30;;;;;;;0.40;0.40;;;9.70;52.30;;;;;;5015388;28;20178;-68
2022/02/19 11:20:03;;;;;;;0.40;0.40;;;9.20;52.40;;;;;;5016071;28;20181;-68
2022/02/19 11:22:31;;;;;;;0.38;0.38;;;8.80;53.60;;;;;;5013729;28;20206;-69
2022/02/19 11:24:57;;;;;;;0.40;0.40;;;8.60;54.80;;;;;;5015879;28;20187;-71
2022/02/19 11:27:45;;;;;;;0.40;0.40;;;8.80;55.30;;;;;;5015139;28;20232;-73
2022/02/19 11:30:11;;;;;;;0.30;0.30;;;8.90;55.20;;;;;;5015499;28;20186;-71
2022/02/19 11:32:40;;;;;;;0.50;0.50;;;9.00;54.20;;;;;;5016043;28;20546;-73
2022/02/19 11:35:07;;;;;;;0.40;0.40;;;9.10;54.30;;;;;;5014722;28;20509;-73
2022/02/19 11:37:43;;;;;;;0.30;0.30;;;9.10;53.50;;;;;;5015481;28;20227;-70
2022/02/19 11:40:14;;;;;;;0.30;0.30;;;9.10;54.10;;;;;;5014384;28;20199;-71
2022/02/19 11:42:43;;;;;;;0.30;0.30;;;9.30;54.40;;;;;;5014398;28;20195;-70
2022/02/19 11:45:28;;;;;;;0.30;0.30;;;9.60;53.40;;;;;;5015416;28;20198;-71
2022/02/19 11:48:14;;;;;;;0.30;0.30;;;10.00;51.20;;;;;;5015227;28;20195;-71
2022/02/19 11:50:43;;;;;;;0.30;0.30;;;10.20;51.30;;;;;;5015316;28;20538;-71
2022/02/19 11:53:09;;;;;;;0.30;0.30;;;10.30;51.20;;;;;;5015053;28;20210;-71
2022/02/19 11:55:44;;;;;;;0.40;0.40;;;10.40;50.80;;;;;;5015067;28;20658;-71
2022/02/19 11:58:17;;;;;;;0.30;0.30;;;10.40;51.00;;;;;;5015116;28;20214;-71
2022/02/19 12:00:51;;;;;;;0.30;0.30;;;10.40;50.60;;;;;;5014898;28;20634;-70
2022/02/19 12:03:23;;;;;;;0.40;0.40;;;10.40;50.60;;;;;;5014781;28;20187;-70
2022/02/19 12:06:18;;;;;;;0.30;0.30;;;10.40;50.70;;;;;;5015365;28;20180;-71
2022/02/19 12:08:46;;;;;;;0.38;0.38;;;10.50;50.40;;;;;;5015144;28;20206;-71
2022/02/19 12:11:12;;;;;;;0.30;0.30;;;10.70;50.20;;;;;;5014881;28;20168;-71
2022/02/19 12:13:46;;;;;;;0.40;0.40;;;10.70;48.40;;;;;;5014678;28;20286;-71
2022/02/19 12:16:34;;;;;;;0.30;0.30;;;10.40;48.40;;;;;;5014728;28;20167;-71
2022/02/19 12:19:05;;;;;;;0.30;0.30;;;10.10;47.40;;;;;;5013705;28;20189;-71
2022/02/19 12:21:34;;;;;;;0.40;0.40;;;9.90;48.70;;;;;;5014927;28;20175;-73
2022/02/19 12:24:14;;;;;;;0.32;0.32;;;9.50;49.10;;;;;;5014603;28;20267;-74
2022/02/19 12:26:55;;;;;;;0.30;0.30;;;9.50;49.80;;;;;;5014628;28;20252;-74
2022/02/19 12:29:26;;;;;;;0.30;0.30;;;9.60;50.10;;;;;;5014746;28;20206;-73
2022/02/19 12:32:04;;;;;;;0.35;0.35;;;9.40;49.70;;;;;;5014493;28;20205;-73
2022/02/19 12:34:32;;;;;;;0.35;0.35;;;9.10;49.30;;;;;;5014683;28;20163;-73
2022/02/19 12:36:59;;;;;;;0.40;0.40;;;9.30;52.20;;;;;;5014308;28;20178;-73
2022/02/19 12:39:26;;;;;;;0.30;0.30;;;9.30;51.20;;;;;;5014469;28;20644;-73
2022/02/19 12:41:56;;;;;;;0.30;0.30;;;9.40;49.80;;;;;;5014255;28;20198;-73
2022/02/19 12:44:23;;;;;;;0.30;0.30;;;9.30;49.90;;;;;;5014333;28;20586;-73
2022/02/19 12:46:52;;;;;;;0.35;0.35;;;9.10;51.00;;;;;;5013979;28;20213;-73
2022/02/19 12:49:19;;;;;;;0.30;0.30;;;9.20;51.70;;;;;;5014200;28;20199;-73
2022/02/19 12:51:54;;;;;;;0.30;0.30;;;9.00;52.70;;;;;;5014063;28;20189;-73
2022/02/19 12:54:33;;;;;;;0.35;0.35;;;8.80;51.00;;;;;;5014251;28;20249;-73
2022/02/19 12:56:59;;;;;;;0.40;0.40;;;8.80;52.30;;;;;;5013997;28;20160;-73
2022/02/19 12:59:32;;;;;;;0.30;0.30;;;8.90;53.00;;;;;;5014224;28;20198;-73
2022/02/19 13:02:00;;;;;;;0.35;0.35;;;8.90;52.90;;;;;;5014170;28;20622;-73
2022/02/19 13:04:32;;;;;;;0.40;0.40;;;8.90;52.80;;;;;;5014047;28;20309;-73
2022/02/19 13:06:58;;;;;;;0.40;0.40;;;8.90;51.70;;;;;;5013897;28;20168;-73